sensor_id;sensor_type;location;lat;lon;timestamp;temperature;humidity
55777;DHT22;54079;44.540;18.784;2023-03-01T00:02:07;4.70;83.20
55777;DHT22;54079;44.540;18.784;2023-03-01T00:04:33;4.70;83.20
55777;DHT22;54079;44.540;18.784;2023-03-01T00:07:01;4.80;82.70
55777;DHT22;54079;44.540;18.784;2023-03-01T00:09:27;4.80;82.20
55777;DHT22;54079;44.540;18.784;2023-03-01T00:11:53;4.60;82.40
55777;DHT22;54079;44.540;18.784;2023-03-01T00:14:19;4.50;83.70
55777;DHT22;54079;44.540;18.784;2023-03-01T00:16:46;4.60;82.70
55777;DHT22;54079;44.540;18.784;2023-03-01T00:19:17;4.50;82.60
55777;DHT22;54079;44.540;18.784;2023-03-01T00:21:43;4.60;82.50
55777;DHT22;54079;44.540;18.784;2023-03-01T00:24:11;4.80;82.30
55777;DHT22;54079;44.540;18.784;2023-03-01T00:26:37;4.80;83.10
55777;DHT22;54079;44.540;18.784;2023-03-01T00:29:03;4.90;82.50
55777;DHT22;54079;44.540;18.784;2023-03-01T00:31:31;4.90;82.80
55777;DHT22;54079;44.540;18.784;2023-03-01T00:34:01;4.90;82.20
55777;DHT22;54079;44.540;18.784;2023-03-01T00:36:29;4.80;82.60
55777;DHT22;54079;44.540;18.784;2023-03-01T00:38:55;4.80;82.80
55777;DHT22;54079;44.540;18.784;2023-03-01T00:41:22;4.90;82.40
55777;DHT22;54079;44.540;18.784;2023-03-01T00:43:49;4.90;82.60
55777;DHT22;54079;44.540;18.784;2023-03-01T00:46:17;4.90;81.40
55777;DHT22;54079;44.540;18.784;2023-03-01T00:48:43;4.80;82.50
55777;DHT22;54079;44.540;18.784;2023-03-01T00:51:12;4.80;82.70
55777;DHT22;54079;44.540;18.784;2023-03-01T00:53:40;4.90;83.80
55777;DHT22;54079;44.540;18.784;2023-03-01T00:56:08;4.90;83.00
55777;DHT22;54079;44.540;18.784;2023-03-01T00:58:35;5.10;82.90
55777;DHT22;54079;44.540;18.784;2023-03-01T01:01:08;5.20;82.00
55777;DHT22;54079;44.540;18.784;2023-03-01T01:03:44;5.30;81.90
55777;DHT22;54079;44.540;18.784;2023-03-01T01:06:33;5.30;81.40
55777;DHT22;54079;44.540;18.784;2023-03-01T01:09:00;5.30;81.30
55777;DHT22;54079;44.540;18.784;2023-03-01T01:11:27;5.20;81.60
55777;DHT22;54079;44.540;18.784;2023-03-01T01:13:54;5.10;81.60
55777;DHT22;54079;44.540;18.784;2023-03-01T01:16:21;5.10;81.80
55777;DHT22;54079;44.540;18.784;2023-03-01T01:18:48;5.00;81.10
55777;DHT22;54079;44.540;18.784;2023-03-01T01:21:17;5.10;81.50
55777;DHT22;54079;44.540;18.784;2023-03-01T01:23:45;5.10;81.40
55777;DHT22;54079;44.540;18.784;2023-03-01T01:26:17;5.10;81.80
55777;DHT22;54079;44.540;18.784;2023-03-01T01:28:44;5.20;81.00
55777;DHT22;54079;44.540;18.784;2023-03-01T01:31:11;5.00;80.80
55777;DHT22;54079;44.540;18.784;2023-03-01T01:33:37;4.90;81.00
55777;DHT22;54079;44.540;18.784;2023-03-01T01:36:04;4.90;83.10
55777;DHT22;54079;44.540;18.784;2023-03-01T01:38:30;5.10;82.80
55777;DHT22;54079;44.540;18.784;2023-03-01T01:40:56;5.20;81.90
55777;DHT22;54079;44.540;18.784;2023-03-01T01:43:42;5.20;81.30
55777;DHT22;54079;44.540;18.784;2023-03-01T01:46:29;5.20;81.40
55777;DHT22;54079;44.540;18.784;2023-03-01T01:49:38;5.20;81.20
55777;DHT22;54079;44.540;18.784;2023-03-01T01:57:40;5.30;80.80
55777;DHT22;54079;44.540;18.784;2023-03-01T02:00:10;5.50;80.40
55777;DHT22;54079;44.540;18.784;2023-03-01T02:02:37;5.30;80.60
55777;DHT22;54079;44.540;18.784;2023-03-01T02:08:02;5.20;80.20
55777;DHT22;54079;44.540;18.784;2023-03-01T02:10:29;5.10;80.20
55777;DHT22;54079;44.540;18.784;2023-03-01T02:12:59;5.10;80.00
55777;DHT22;54079;44.540;18.784;2023-03-01T02:15:25;5.20;81.10
55777;DHT22;54079;44.540;18.784;2023-03-01T02:17:53;5.40;79.80
55777;DHT22;54079;44.540;18.784;2023-03-01T02:22:54;5.40;80.50
55777;DHT22;54079;44.540;18.784;2023-03-01T02:25:27;5.40;80.10
55777;DHT22;54079;44.540;18.784;2023-03-01T02:28:10;5.30;80.40
55777;DHT22;54079;44.540;18.784;2023-03-01T02:30:37;5.20;81.90
55777;DHT22;54079;44.540;18.784;2023-03-01T02:33:23;5.30;81.20
55777;DHT22;54079;44.540;18.784;2023-03-01T02:35:50;5.30;80.90
55777;DHT22;54079;44.540;18.784;2023-03-01T02:38:16;5.20;81.20
55777;DHT22;54079;44.540;18.784;2023-03-01T02:40:42;5.40;81.40
55777;DHT22;54079;44.540;18.784;2023-03-01T02:43:11;5.50;79.60
55777;DHT22;54079;44.540;18.784;2023-03-01T02:45:37;5.50;79.20
55777;DHT22;54079;44.540;18.784;2023-03-01T02:48:08;5.50;79.40
55777;DHT22;54079;44.540;18.784;2023-03-01T02:53:45;5.50;78.90
55777;DHT22;54079;44.540;18.784;2023-03-01T02:56:15;5.50;78.90
55777;DHT22;54079;44.540;18.784;2023-03-01T02:58:42;5.50;79.00
55777;DHT22;54079;44.540;18.784;2023-03-01T03:01:11;5.40;79.30
55777;DHT22;54079;44.540;18.784;2023-03-01T03:03:38;5.30;79.80
55777;DHT22;54079;44.540;18.784;2023-03-01T03:06:05;5.40;80.10
55777;DHT22;54079;44.540;18.784;2023-03-01T03:08:30;5.30;80.70
55777;DHT22;54079;44.540;18.784;2023-03-01T03:10:56;5.30;81.40
55777;DHT22;54079;44.540;18.784;2023-03-01T03:13:22;5.40;80.10
55777;DHT22;54079;44.540;18.784;2023-03-01T03:15:54;5.40;80.00
55777;DHT22;54079;44.540;18.784;2023-03-01T03:18:22;5.30;79.70
55777;DHT22;54079;44.540;18.784;2023-03-01T03:20:48;5.30;80.10
55777;DHT22;54079;44.540;18.784;2023-03-01T03:23:19;5.30;80.10
55777;DHT22;54079;44.540;18.784;2023-03-01T03:25:48;5.30;80.50
55777;DHT22;54079;44.540;18.784;2023-03-01T03:28:15;5.30;80.50
55777;DHT22;54079;44.540;18.784;2023-03-01T03:30:42;5.30;80.40
55777;DHT22;54079;44.540;18.784;2023-03-01T03:33:09;5.40;80.00
55777;DHT22;54079;44.540;18.784;2023-03-01T03:35:41;5.30;80.00
55777;DHT22;54079;44.540;18.784;2023-03-01T03:38:09;5.30;80.00
55777;DHT22;54079;44.540;18.784;2023-03-01T03:40:46;5.30;80.10
55777;DHT22;54079;44.540;18.784;2023-03-01T03:43:17;5.30;79.60
55777;DHT22;54079;44.540;18.784;2023-03-01T03:45:47;5.20;80.20
55777;DHT22;54079;44.540;18.784;2023-03-01T03:48:13;5.20;80.00
55777;DHT22;54079;44.540;18.784;2023-03-01T03:50:40;5.10;80.50
55777;DHT22;54079;44.540;18.784;2023-03-01T03:53:11;5.10;81.00
55777;DHT22;54079;44.540;18.784;2023-03-01T03:55:38;5.20;80.50
55777;DHT22;54079;44.540;18.784;2023-03-01T03:58:09;5.00;80.50
55777;DHT22;54079;44.540;18.784;2023-03-01T04:00:40;5.10;81.30
55777;DHT22;54079;44.540;18.784;2023-03-01T04:03:07;5.20;80.70
55777;DHT22;54079;44.540;18.784;2023-03-01T04:05:33;5.30;80.00
55777;DHT22;54079;44.540;18.784;2023-03-01T04:07:59;5.30;80.40
55777;DHT22;54079;44.540;18.784;2023-03-01T04:10:30;5.30;79.80
55777;DHT22;54079;44.540;18.784;2023-03-01T04:12:57;5.20;80.00
55777;DHT22;54079;44.540;18.784;2023-03-01T04:15:24;5.20;80.40
55777;DHT22;54079;44.540;18.784;2023-03-01T04:17:51;5.20;80.30
55777;DHT22;54079;44.540;18.784;2023-03-01T04:20:24;5.30;80.00
55777;DHT22;54079;44.540;18.784;2023-03-01T04:23:02;5.30;80.50
55777;DHT22;54079;44.540;18.784;2023-03-01T04:25:40;5.00;80.50
55777;DHT22;54079;44.540;18.784;2023-03-01T04:28:07;5.00;81.40
55777;DHT22;54079;44.540;18.784;2023-03-01T04:30:33;5.20;81.30
55777;DHT22;54079;44.540;18.784;2023-03-01T04:33:03;5.00;80.40
55777;DHT22;54079;44.540;18.784;2023-03-01T04:35:30;4.90;80.70
55777;DHT22;54079;44.540;18.784;2023-03-01T04:37:56;4.80;81.40
55777;DHT22;54079;44.540;18.784;2023-03-01T04:40:22;4.70;81.50
55777;DHT22;54079;44.540;18.784;2023-03-01T04:42:48;4.60;81.90
55777;DHT22;54079;44.540;18.784;2023-03-01T04:45:14;4.60;83.30
55777;DHT22;54079;44.540;18.784;2023-03-01T04:47:41;4.90;82.90
55777;DHT22;54079;44.540;18.784;2023-03-01T04:50:09;5.00;81.50
55777;DHT22;54079;44.540;18.784;2023-03-01T04:52:35;5.00;81.50
55777;DHT22;54079;44.540;18.784;2023-03-01T04:55:02;5.00;81.90
55777;DHT22;54079;44.540;18.784;2023-03-01T04:57:29;5.10;82.60
55777;DHT22;54079;44.540;18.784;2023-03-01T04:59:55;5.00;81.40
55777;DHT22;54079;44.540;18.784;2023-03-01T05:02:21;5.00;82.10
55777;DHT22;54079;44.540;18.784;2023-03-01T05:04:47;5.00;81.60
55777;DHT22;54079;44.540;18.784;2023-03-01T05:07:13;5.00;81.40
55777;DHT22;54079;44.540;18.784;2023-03-01T05:09:46;5.10;80.90
55777;DHT22;54079;44.540;18.784;2023-03-01T05:12:12;5.10;80.90
55777;DHT22;54079;44.540;18.784;2023-03-01T05:14:39;5.10;82.90
55777;DHT22;54079;44.540;18.784;2023-03-01T05:17:05;5.30;82.20
55777;DHT22;54079;44.540;18.784;2023-03-01T05:19:31;5.20;81.60
55777;DHT22;54079;44.540;18.784;2023-03-01T05:21:58;5.30;80.60
55777;DHT22;54079;44.540;18.784;2023-03-01T05:24:28;5.20;81.10
55777;DHT22;54079;44.540;18.784;2023-03-01T05:26:55;5.00;81.30
55777;DHT22;54079;44.540;18.784;2023-03-01T05:29:21;5.10;81.60
55777;DHT22;54079;44.540;18.784;2023-03-01T05:31:54;5.10;81.80
55777;DHT22;54079;44.540;18.784;2023-03-01T05:34:32;5.20;82.30
55777;DHT22;54079;44.540;18.784;2023-03-01T05:36:59;5.40;82.30
55777;DHT22;54079;44.540;18.784;2023-03-01T05:39:27;5.50;81.90
55777;DHT22;54079;44.540;18.784;2023-03-01T05:41:55;5.50;80.90
55777;DHT22;54079;44.540;18.784;2023-03-01T05:44:21;5.40;80.60
55777;DHT22;54079;44.540;18.784;2023-03-01T05:46:47;5.40;80.80
55777;DHT22;54079;44.540;18.784;2023-03-01T05:49:14;5.40;81.10
55777;DHT22;54079;44.540;18.784;2023-03-01T05:51:40;5.30;81.70
55777;DHT22;54079;44.540;18.784;2023-03-01T05:54:07;5.50;81.40
55777;DHT22;54079;44.540;18.784;2023-03-01T05:56:34;5.50;81.40
55777;DHT22;54079;44.540;18.784;2023-03-01T05:59:01;5.60;81.80
55777;DHT22;54079;44.540;18.784;2023-03-01T06:01:27;5.70;81.10
55777;DHT22;54079;44.540;18.784;2023-03-01T06:03:53;5.70;80.20
55777;DHT22;54079;44.540;18.784;2023-03-01T06:06:19;5.60;80.10
55777;DHT22;54079;44.540;18.784;2023-03-01T06:08:45;5.60;80.60
55777;DHT22;54079;44.540;18.784;2023-03-01T06:11:11;5.80;81.30
55777;DHT22;54079;44.540;18.784;2023-03-01T06:13:37;5.80;80.00
55777;DHT22;54079;44.540;18.784;2023-03-01T06:16:07;5.80;80.40
55777;DHT22;54079;44.540;18.784;2023-03-01T06:18:33;5.90;80.20
55777;DHT22;54079;44.540;18.784;2023-03-01T06:20:59;6.00;79.60
55777;DHT22;54079;44.540;18.784;2023-03-01T06:23:25;6.00;79.50
55777;DHT22;54079;44.540;18.784;2023-03-01T06:25:51;5.90;80.20
55777;DHT22;54079;44.540;18.784;2023-03-01T06:28:17;6.10;80.50
55777;DHT22;54079;44.540;18.784;2023-03-01T06:30:44;6.20;79.50
55777;DHT22;54079;44.540;18.784;2023-03-01T06:33:10;6.20;79.40
55777;DHT22;54079;44.540;18.784;2023-03-01T06:35:36;6.20;79.30
55777;DHT22;54079;44.540;18.784;2023-03-01T06:38:03;6.20;79.20
55777;DHT22;54079;44.540;18.784;2023-03-01T06:40:30;6.30;79.70
55777;DHT22;54079;44.540;18.784;2023-03-01T06:42:57;6.20;79.30
55777;DHT22;54079;44.540;18.784;2023-03-01T06:45:24;6.30;79.80
55777;DHT22;54079;44.540;18.784;2023-03-01T06:47:50;6.40;79.30
55777;DHT22;54079;44.540;18.784;2023-03-01T06:50:17;6.40;79.30
55777;DHT22;54079;44.540;18.784;2023-03-01T06:52:43;6.30;79.60
55777;DHT22;54079;44.540;18.784;2023-03-01T06:55:11;5.90;79.70
55777;DHT22;54079;44.540;18.784;2023-03-01T06:57:37;5.70;80.40
55777;DHT22;54079;44.540;18.784;2023-03-01T07:00:04;5.50;81.40
55777;DHT22;54079;44.540;18.784;2023-03-01T07:02:31;5.50;81.10
55777;DHT22;54079;44.540;18.784;2023-03-01T07:04:57;5.70;82.50
55777;DHT22;54079;44.540;18.784;2023-03-01T07:07:23;5.90;81.00
55777;DHT22;54079;44.540;18.784;2023-03-01T07:09:49;5.90;81.40
55777;DHT22;54079;44.540;18.784;2023-03-01T07:12:16;5.90;80.90
55777;DHT22;54079;44.540;18.784;2023-03-01T07:14:43;6.00;79.80
55777;DHT22;54079;44.540;18.784;2023-03-01T07:17:09;6.00;80.40
55777;DHT22;54079;44.540;18.784;2023-03-01T07:19:35;5.90;80.80
55777;DHT22;54079;44.540;18.784;2023-03-01T07:22:02;5.80;80.70
55777;DHT22;54079;44.540;18.784;2023-03-01T07:24:29;6.00;81.60
55777;DHT22;54079;44.540;18.784;2023-03-01T07:26:55;6.30;80.90
55777;DHT22;54079;44.540;18.784;2023-03-01T07:29:21;6.40;79.90
55777;DHT22;54079;44.540;18.784;2023-03-01T07:31:47;6.40;79.40
55777;DHT22;54079;44.540;18.784;2023-03-01T07:34:13;6.50;79.00
55777;DHT22;54079;44.540;18.784;2023-03-01T07:36:39;6.60;79.10
55777;DHT22;54079;44.540;18.784;2023-03-01T07:39:09;6.60;79.20
55777;DHT22;54079;44.540;18.784;2023-03-01T07:41:35;6.70;78.50
55777;DHT22;54079;44.540;18.784;2023-03-01T07:44:01;6.80;78.00
55777;DHT22;54079;44.540;18.784;2023-03-01T07:46:27;6.70;78.20
55777;DHT22;54079;44.540;18.784;2023-03-01T07:48:53;6.70;78.80
55777;DHT22;54079;44.540;18.784;2023-03-01T07:51:19;6.90;78.20
55777;DHT22;54079;44.540;18.784;2023-03-01T07:53:48;7.10;77.80
55777;DHT22;54079;44.540;18.784;2023-03-01T07:56:15;7.20;77.30
55777;DHT22;54079;44.540;18.784;2023-03-01T07:58:45;7.10;77.20
55777;DHT22;54079;44.540;18.784;2023-03-01T08:01:13;7.10;77.30
55777;DHT22;54079;44.540;18.784;2023-03-01T08:03:40;7.10;77.80
55777;DHT22;54079;44.540;18.784;2023-03-01T08:06:08;7.10;77.60
55777;DHT22;54079;44.540;18.784;2023-03-01T08:08:34;7.10;77.20
55777;DHT22;54079;44.540;18.784;2023-03-01T08:11:02;7.10;77.20
55777;DHT22;54079;44.540;18.784;2023-03-01T08:13:29;7.00;77.90
55777;DHT22;54079;44.540;18.784;2023-03-01T08:16:05;7.00;76.80
55777;DHT22;54079;44.540;18.784;2023-03-01T08:18:31;7.10;77.40
55777;DHT22;54079;44.540;18.784;2023-03-01T08:21:10;7.20;76.20
55777;DHT22;54079;44.540;18.784;2023-03-01T08:23:36;7.10;76.60
55777;DHT22;54079;44.540;18.784;2023-03-01T08:26:14;7.00;76.90
55777;DHT22;54079;44.540;18.784;2023-03-01T08:28:41;7.20;77.00
55777;DHT22;54079;44.540;18.784;2023-03-01T08:31:21;7.20;76.70
55777;DHT22;54079;44.540;18.784;2023-03-01T08:33:48;7.30;76.50
55777;DHT22;54079;44.540;18.784;2023-03-01T08:36:18;7.40;77.10
55777;DHT22;54079;44.540;18.784;2023-03-01T08:38:45;7.60;75.70
55777;DHT22;54079;44.540;18.784;2023-03-01T08:41:11;7.70;75.70
55777;DHT22;54079;44.540;18.784;2023-03-01T08:43:37;7.70;75.20
55777;DHT22;54079;44.540;18.784;2023-03-01T08:46:03;7.70;75.20
55777;DHT22;54079;44.540;18.784;2023-03-01T08:48:29;7.90;75.50
55777;DHT22;54079;44.540;18.784;2023-03-01T08:50:55;8.00;75.00
55777;DHT22;54079;44.540;18.784;2023-03-01T08:53:21;8.00;74.60
55777;DHT22;54079;44.540;18.784;2023-03-01T08:55:47;8.20;74.70
55777;DHT22;54079;44.540;18.784;2023-03-01T08:58:13;8.30;73.80
55777;DHT22;54079;44.540;18.784;2023-03-01T09:00:40;8.40;73.50
55777;DHT22;54079;44.540;18.784;2023-03-01T09:03:06;8.20;72.90
55777;DHT22;54079;44.540;18.784;2023-03-01T09:05:33;8.10;73.90
55777;DHT22;54079;44.540;18.784;2023-03-01T09:07:59;8.30;73.30
55777;DHT22;54079;44.540;18.784;2023-03-01T09:10:25;8.40;73.70
55777;DHT22;54079;44.540;18.784;2023-03-01T09:12:52;8.30;73.60
55777;DHT22;54079;44.540;18.784;2023-03-01T09:15:17;8.10;74.70
55777;DHT22;54079;44.540;18.784;2023-03-01T09:17:43;8.10;74.10
55777;DHT22;54079;44.540;18.784;2023-03-01T09:20:10;7.90;74.60
55777;DHT22;54079;44.540;18.784;2023-03-01T09:22:36;7.50;74.90
55777;DHT22;54079;44.540;18.784;2023-03-01T09:25:02;7.30;76.30
55777;DHT22;54079;44.540;18.784;2023-03-01T09:27:28;7.20;77.00
55777;DHT22;54079;44.540;18.784;2023-03-01T09:29:54;7.10;77.10
55777;DHT22;54079;44.540;18.784;2023-03-01T09:32:21;7.10;77.10
55777;DHT22;54079;44.540;18.784;2023-03-01T09:34:47;7.40;77.00
55777;DHT22;54079;44.540;18.784;2023-03-01T09:37:35;7.50;76.10
55777;DHT22;54079;44.540;18.784;2023-03-01T09:40:08;7.70;75.80
55777;DHT22;54079;44.540;18.784;2023-03-01T09:43:08;7.50;76.30
55777;DHT22;54079;44.540;18.784;2023-03-01T09:45:39;7.40;76.40
55777;DHT22;54079;44.540;18.784;2023-03-01T09:48:21;7.20;77.10
55777;DHT22;54079;44.540;18.784;2023-03-01T09:50:49;7.30;77.10
55777;DHT22;54079;44.540;18.784;2023-03-01T09:53:22;7.10;77.60
55777;DHT22;54079;44.540;18.784;2023-03-01T09:55:58;7.00;78.10
55777;DHT22;54079;44.540;18.784;2023-03-01T09:58:54;6.90;78.20
55777;DHT22;54079;44.540;18.784;2023-03-01T10:01:43;6.80;78.20
55777;DHT22;54079;44.540;18.784;2023-03-01T10:04:27;6.90;78.90
55777;DHT22;54079;44.540;18.784;2023-03-01T10:07:00;7.20;79.00
55777;DHT22;54079;44.540;18.784;2023-03-01T10:09:32;7.20;77.80
55777;DHT22;54079;44.540;18.784;2023-03-01T10:12:02;7.40;77.80
55777;DHT22;54079;44.540;18.784;2023-03-01T10:14:53;7.30;77.60
55777;DHT22;54079;44.540;18.784;2023-03-01T10:20:25;7.80;76.70
55777;DHT22;54079;44.540;18.784;2023-03-01T10:22:52;8.00;77.00
55777;DHT22;54079;44.540;18.784;2023-03-01T10:28:01;8.30;74.30
55777;DHT22;54079;44.540;18.784;2023-03-01T10:30:39;8.50;74.60
55777;DHT22;54079;44.540;18.784;2023-03-01T10:33:28;8.50;74.10
55777;DHT22;54079;44.540;18.784;2023-03-01T10:35:55;8.30;73.80
55777;DHT22;54079;44.540;18.784;2023-03-01T10:38:21;8.20;74.20
55777;DHT22;54079;44.540;18.784;2023-03-01T10:40:53;8.00;75.80
55777;DHT22;54079;44.540;18.784;2023-03-01T10:43:19;8.00;75.40
55777;DHT22;54079;44.540;18.784;2023-03-01T10:45:46;7.90;75.70
55777;DHT22;54079;44.540;18.784;2023-03-01T10:48:20;7.90;76.20
55777;DHT22;54079;44.540;18.784;2023-03-01T10:51:06;7.60;76.30
55777;DHT22;54079;44.540;18.784;2023-03-01T10:53:35;7.40;77.70
55777;DHT22;54079;44.540;18.784;2023-03-01T10:56:08;7.30;77.50
55777;DHT22;54079;44.540;18.784;2023-03-01T10:58:37;7.20;77.70
55777;DHT22;54079;44.540;18.784;2023-03-01T11:03:40;7.10;79.00
55777;DHT22;54079;44.540;18.784;2023-03-01T11:06:20;7.40;78.30
55777;DHT22;54079;44.540;18.784;2023-03-01T11:08:49;7.40;77.70
55777;DHT22;54079;44.540;18.784;2023-03-01T11:11:31;7.50;77.70
55777;DHT22;54079;44.540;18.784;2023-03-01T11:16:37;8.10;76.50
55777;DHT22;54079;44.540;18.784;2023-03-01T11:24:52;8.80;73.80
55777;DHT22;54079;44.540;18.784;2023-03-01T11:27:38;9.20;73.10
55777;DHT22;54079;44.540;18.784;2023-03-01T11:30:24;9.50;71.50
55777;DHT22;54079;44.540;18.784;2023-03-01T11:33:03;9.40;71.40
55777;DHT22;54079;44.540;18.784;2023-03-01T11:35:32;9.20;72.20
55777;DHT22;54079;44.540;18.784;2023-03-01T11:38:03;9.20;72.80
55777;DHT22;54079;44.540;18.784;2023-03-01T11:40:47;9.20;71.90
55777;DHT22;54079;44.540;18.784;2023-03-01T12:00:31;9.80;70.30
55777;DHT22;54079;44.540;18.784;2023-03-01T12:03:29;9.90;69.70
55777;DHT22;54079;44.540;18.784;2023-03-01T12:06:12;9.80;70.00
55777;DHT22;54079;44.540;18.784;2023-03-01T12:14:28;9.50;71.50
55777;DHT22;54079;44.540;18.784;2023-03-01T12:31:29;8.10;75.30
55777;DHT22;54079;44.540;18.784;2023-03-01T12:50:49;7.30;78.30
55777;DHT22;54079;44.540;18.784;2023-03-01T12:53:29;7.30;79.00
55777;DHT22;54079;44.540;18.784;2023-03-01T12:56:11;7.50;77.90
55777;DHT22;54079;44.540;18.784;2023-03-01T12:59:08;7.40;78.70
55777;DHT22;54079;44.540;18.784;2023-03-01T13:08:05;8.00;77.00
55777;DHT22;54079;44.540;18.784;2023-03-01T13:13:07;8.00;77.10
55777;DHT22;54079;44.540;18.784;2023-03-01T13:15:38;8.10;76.50
55777;DHT22;54079;44.540;18.784;2023-03-01T13:20:48;8.10;76.60
55777;DHT22;54079;44.540;18.784;2023-03-01T13:31:10;8.10;76.80
55777;DHT22;54079;44.540;18.784;2023-03-01T13:33:47;7.90;76.70
55777;DHT22;54079;44.540;18.784;2023-03-01T13:49:59;7.30;79.40
55777;DHT22;54079;44.540;18.784;2023-03-01T13:52:39;7.40;79.50
55777;DHT22;54079;44.540;18.784;2023-03-01T13:55:34;7.50;79.00
55777;DHT22;54079;44.540;18.784;2023-03-01T13:58:13;7.50;79.10
55777;DHT22;54079;44.540;18.784;2023-03-01T14:00:40;7.70;78.30
55777;DHT22;54079;44.540;18.784;2023-03-01T14:03:14;7.60;78.20
55777;DHT22;54079;44.540;18.784;2023-03-01T14:05:42;7.60;78.70
55777;DHT22;54079;44.540;18.784;2023-03-01T14:08:29;7.70;77.90
55777;DHT22;54079;44.540;18.784;2023-03-01T14:16:57;8.30;76.90
55777;DHT22;54079;44.540;18.784;2023-03-01T14:19:27;8.40;76.50
55777;DHT22;54079;44.540;18.784;2023-03-01T14:24:29;8.60;76.00
55777;DHT22;54079;44.540;18.784;2023-03-01T14:26:59;8.80;75.70
55777;DHT22;54079;44.540;18.784;2023-03-01T14:29:27;8.80;75.30
55777;DHT22;54079;44.540;18.784;2023-03-01T14:31:53;8.80;74.70
55777;DHT22;54079;44.540;18.784;2023-03-01T14:34:24;8.90;74.90
55777;DHT22;54079;44.540;18.784;2023-03-01T14:36:50;8.90;75.00
55777;DHT22;54079;44.540;18.784;2023-03-01T14:39:17;8.80;75.00
55777;DHT22;54079;44.540;18.784;2023-03-01T14:41:44;8.70;75.00
55777;DHT22;54079;44.540;18.784;2023-03-01T14:44:16;8.60;75.00
55777;DHT22;54079;44.540;18.784;2023-03-01T14:46:45;8.60;75.60
55777;DHT22;54079;44.540;18.784;2023-03-01T14:49:12;8.50;76.10
55777;DHT22;54079;44.540;18.784;2023-03-01T14:51:42;8.50;75.20
55777;DHT22;54079;44.540;18.784;2023-03-01T14:54:32;8.60;75.10
55777;DHT22;54079;44.540;18.784;2023-03-01T14:57:01;8.60;75.10
55777;DHT22;54079;44.540;18.784;2023-03-01T14:59:28;8.30;76.50
55777;DHT22;54079;44.540;18.784;2023-03-01T15:01:56;8.30;76.20
55777;DHT22;54079;44.540;18.784;2023-03-01T15:04:24;8.20;76.70
55777;DHT22;54079;44.540;18.784;2023-03-01T15:06:52;8.10;76.80
55777;DHT22;54079;44.540;18.784;2023-03-01T15:09:19;8.20;76.60
55777;DHT22;54079;44.540;18.784;2023-03-01T15:11:45;8.10;76.90
55777;DHT22;54079;44.540;18.784;2023-03-01T15:14:50;8.10;76.80
55777;DHT22;54079;44.540;18.784;2023-03-01T15:17:27;8.20;77.20
55777;DHT22;54079;44.540;18.784;2023-03-01T15:19:54;8.20;77.00
55777;DHT22;54079;44.540;18.784;2023-03-01T15:22:21;8.20;76.80
55777;DHT22;54079;44.540;18.784;2023-03-01T15:24:51;8.10;76.10
55777;DHT22;54079;44.540;18.784;2023-03-01T15:27:20;7.90;77.20
55777;DHT22;54079;44.540;18.784;2023-03-01T15:29:52;7.60;78.10
55777;DHT22;54079;44.540;18.784;2023-03-01T15:32:31;7.40;79.20
55777;DHT22;54079;44.540;18.784;2023-03-01T15:34:59;7.50;79.20
55777;DHT22;54079;44.540;18.784;2023-03-01T15:37:43;7.50;78.90
55777;DHT22;54079;44.540;18.784;2023-03-01T15:40:20;7.50;78.60
55777;DHT22;54079;44.540;18.784;2023-03-01T15:42:50;7.50;79.40
55777;DHT22;54079;44.540;18.784;2023-03-01T15:47:57;7.50;79.40
55777;DHT22;54079;44.540;18.784;2023-03-01T15:50:30;7.60;79.30
55777;DHT22;54079;44.540;18.784;2023-03-01T15:53:04;7.60;78.70
55777;DHT22;54079;44.540;18.784;2023-03-01T15:55:32;7.50;79.10
55777;DHT22;54079;44.540;18.784;2023-03-01T15:58:02;7.50;79.70
55777;DHT22;54079;44.540;18.784;2023-03-01T16:00:29;7.60;79.60
55777;DHT22;54079;44.540;18.784;2023-03-01T16:02:56;7.60;79.10
55777;DHT22;54079;44.540;18.784;2023-03-01T16:05:28;7.60;79.40
55777;DHT22;54079;44.540;18.784;2023-03-01T16:07:54;7.60;79.90
55777;DHT22;54079;44.540;18.784;2023-03-01T16:10:20;7.60;80.00
55777;DHT22;54079;44.540;18.784;2023-03-01T16:12:46;7.50;79.90
55777;DHT22;54079;44.540;18.784;2023-03-01T16:15:23;7.30;80.40
55777;DHT22;54079;44.540;18.784;2023-03-01T16:17:50;7.00;81.90
55777;DHT22;54079;44.540;18.784;2023-03-01T16:20:18;7.00;81.70
55777;DHT22;54079;44.540;18.784;2023-03-01T16:22:45;7.00;82.00
55777;DHT22;54079;44.540;18.784;2023-03-01T16:25:12;7.00;82.10
55777;DHT22;54079;44.540;18.784;2023-03-01T16:27:42;6.90;82.40
55777;DHT22;54079;44.540;18.784;2023-03-01T16:30:09;6.90;82.40
55777;DHT22;54079;44.540;18.784;2023-03-01T16:32:43;6.90;82.60
55777;DHT22;54079;44.540;18.784;2023-03-01T16:35:11;6.80;82.90
55777;DHT22;54079;44.540;18.784;2023-03-01T16:37:39;6.70;83.50
55777;DHT22;54079;44.540;18.784;2023-03-01T16:40:11;6.60;84.20
55777;DHT22;54079;44.540;18.784;2023-03-01T16:42:41;6.70;84.40
55777;DHT22;54079;44.540;18.784;2023-03-01T16:45:08;6.80;84.00
55777;DHT22;54079;44.540;18.784;2023-03-01T16:47:34;6.60;85.10
55777;DHT22;54079;44.540;18.784;2023-03-01T16:50:01;6.50;85.50
55777;DHT22;54079;44.540;18.784;2023-03-01T16:52:27;6.40;86.20
55777;DHT22;54079;44.540;18.784;2023-03-01T16:54:53;6.40;86.30
55777;DHT22;54079;44.540;18.784;2023-03-01T16:57:19;6.40;87.20
55777;DHT22;54079;44.540;18.784;2023-03-01T16:59:45;6.40;88.10
55777;DHT22;54079;44.540;18.784;2023-03-01T17:02:13;6.60;86.80
55777;DHT22;54079;44.540;18.784;2023-03-01T17:04:40;6.70;86.80
55777;DHT22;54079;44.540;18.784;2023-03-01T17:07:06;6.90;85.60
55777;DHT22;54079;44.540;18.784;2023-03-01T17:09:36;6.90;84.60
55777;DHT22;54079;44.540;18.784;2023-03-01T17:12:04;6.80;84.20
55777;DHT22;54079;44.540;18.784;2023-03-01T17:14:30;6.70;85.70
55777;DHT22;54079;44.540;18.784;2023-03-01T17:16:56;6.80;85.60
55777;DHT22;54079;44.540;18.784;2023-03-01T17:19:22;6.90;85.80
55777;DHT22;54079;44.540;18.784;2023-03-01T17:21:48;7.00;84.00
55777;DHT22;54079;44.540;18.784;2023-03-01T17:24:14;7.00;84.30
55777;DHT22;54079;44.540;18.784;2023-03-01T17:26:40;7.10;84.20
55777;DHT22;54079;44.540;18.784;2023-03-01T17:29:05;7.00;83.60
55777;DHT22;54079;44.540;18.784;2023-03-01T17:31:33;6.90;84.30
55777;DHT22;54079;44.540;18.784;2023-03-01T17:33:59;6.90;84.20
55777;DHT22;54079;44.540;18.784;2023-03-01T17:36:25;6.70;85.60
55777;DHT22;54079;44.540;18.784;2023-03-01T17:38:51;6.50;85.70
55777;DHT22;54079;44.540;18.784;2023-03-01T17:41:18;6.30;86.50
55777;DHT22;54079;44.540;18.784;2023-03-01T17:43:45;6.20;89.20
55777;DHT22;54079;44.540;18.784;2023-03-01T17:46:11;6.30;90.10
55777;DHT22;54079;44.540;18.784;2023-03-01T17:48:37;6.50;88.80
55777;DHT22;54079;44.540;18.784;2023-03-01T17:51:07;6.60;88.20
55777;DHT22;54079;44.540;18.784;2023-03-01T17:53:34;6.90;86.70
55777;DHT22;54079;44.540;18.784;2023-03-01T17:56:03;7.00;85.50